Valley Peak, Santa Cruz Island Reserve, California Weather observations

Data are for 10 minute period ending at time listed.
 Day   Time   Solar   Ave.   Ave.  Ave.  Vector  Max.   Baro.   Total    
  of    of     Rad.   Air    Rel.  Wind   Wind   Wind  Press.  Precip.   
Year   Day            Temp.  Hum.  Speed  Dir.   Gust                    
2017   (PST)  Kw/m2    F      %     mph   deg.    mph    mb.     in.     
-------------------------------------------------------------------------
  16    6:20   0.00   48.8    95    4.7    28     5.3   968.1    0.00 
  16    6:30   0.00   48.9    94    4.3    18     5.6   968.2    0.00 
  16    6:40   0.00   48.7    95    4.8    10     5.5   968.3    0.00 
  16    6:50   0.00   48.9    95    5.4   347     5.6   968.4    0.00 
  16    7:00   0.00   48.8    95    6.2   343     6.9   968.5    0.00 
  16    7:10   0.00   48.9    94    7.9   350     8.8   968.6    0.00 
  16    7:20   0.01   48.9    95    8.8   352     9.2   968.6    0.00 
  16    7:30   0.03   48.9    95    7.4   353     8.9   968.6    0.00 
  16    7:40   0.05   49.2    95    7.3   346     8.1   968.8    0.00 
  16    7:50   0.09   49.3    94    6.3   358     8.1   968.9    0.00 
  16    8:00   0.12   49.5    95    6.3    11     7.7   968.9    0.00 
  16    8:10   0.14   49.7    94    6.1    19     8.0   968.9    0.00 
  16    8:20   0.17   50.1    94    5.6    26     7.7   969.0    0.00 
  16    8:30   0.20   50.7    93    4.5    31     6.2   969.0    0.00 
  16    8:40   0.22   51.1    92    3.5    29     5.1   969.0    0.00 
  16    8:50   0.25   51.7    90    4.2    33     6.6   969.1    0.00 
  16    9:00   0.28   52.8    87    2.6    52     5.2   969.1    0.00 
  16    9:10   0.32   54.0    83    2.1    60     4.7   969.1    0.00 
  16    9:20   0.35   54.8    80    1.9    54     3.9   969.1    0.00 
  16    9:30   0.39   55.2    78    1.6   354     3.7   969.0    0.00 
  16    9:40   0.43   54.9    77    1.7     2     3.7   969.0    0.00 
  16    9:50   0.41   54.7    76    2.0    28     4.2   968.9    0.00 
  16   10:00   0.31   55.0    76    2.2    35     6.4   969.0    0.00 
  16   10:10   0.46   56.5    73    3.9    47     7.2   969.1    0.00 
  16   10:20   0.47   58.0    72    2.5    52     5.5   969.1    0.00 
  16   10:30   0.23   56.6    76    2.2    51     4.6   969.2    0.00 
  16   10:40   0.20   56.4    76    2.1    56     3.8   969.3    0.00 
  16   10:50   0.09   55.5    78    2.7    53     3.9   969.2    0.00 
  16   11:00   0.10   54.6    79    2.1    33     3.5   969.0    0.00 
  16   11:10   0.11   52.8    82    3.0    18     4.0   968.9    0.00 
  16   11:20   0.16   53.6    82    1.6   256     5.6   968.7    0.00 
  16   11:30   0.28   55.0    84    2.8   199     7.6   968.6    0.00 
  16   11:40   0.25   56.3    79    1.5   128     4.8   968.5    0.00 
  16   11:50   0.26   56.1    80    2.0   158     8.9   968.4    0.00 
  16   12:00   0.48   58.0    79    3.4   117     7.7   968.3    0.00 
  16   12:10   0.26   58.6    75    2.4    86     8.5   968.1    0.00 
  16   12:20   0.35   56.4    79    2.6    55     5.6   968.0    0.00 
  16   12:30   0.27   57.8    75    3.3    52     5.2   967.8    0.00 
  16   12:40   0.32   58.2    72    3.1    50     7.5   967.7    0.00 
  16   12:50   0.24   55.1    76    7.3    30     9.9   967.6    0.00 
  16   13:00   0.47   54.7    77    7.3    38    13.2   967.6    0.00 
  16   13:10   0.57   57.0    71    7.4    36    11.5   967.4    0.00 
  16   13:20   0.55   57.3    68    6.0    34    10.2   967.4    0.00 
  16   13:30   0.54   58.2    64    5.8    31    10.4   967.3    0.00 
  16   13:40   0.52   57.8    65    5.4    38     9.7   967.2    0.00 
  16   13:50   0.51   57.8    65    7.5    33    10.3   967.1    0.00 
  16   14:00   0.49   55.4    72    8.6    31    10.5   967.0    0.00 
  16   14:10   0.47   55.3    75    8.0    34    12.0   966.9    0.00 
  16   14:20   0.45   56.1    74    7.6    33    10.5   966.9    0.00 
  16   14:30   0.43   56.0    72    6.2    31     8.3   966.9    0.00 
  16   14:40   0.41   57.1    69    5.5    30     7.6   966.7    0.00 
  16   14:50   0.39   56.7    69    7.1    31     9.3   966.7    0.00 
  16   15:00   0.36   57.0    68    6.9    25     8.9   966.7    0.00 
  16   15:10   0.33   56.9    69    6.7    31     9.3   966.7    0.00 
  16   15:20   0.31   56.6    70    8.2    25    10.4   966.6    0.00 
  16   15:30   0.28   56.0    72    9.3    27    11.0   966.7    0.00 
  16   15:40   0.25   55.5    74    8.3    29    10.4   966.6    0.00 
  16   15:50   0.22   54.7    74    8.9    18    11.0   966.7    0.00 
  16   16:00   0.19   54.6    72    9.8    20    11.7   966.7    0.00 
  16   16:10   0.16   54.3    73    8.0    13     9.9   966.8    0.00 
  16   16:20   0.13   52.8    76    9.9    12    12.9   966.8    0.00 
  16   16:30   0.10   52.2    77   11.2    13    13.3   966.9    0.00 
  16   16:40   0.08   52.1    76   10.5    10    12.1   966.9    0.00 
  16   16:50   0.05   51.8    76   11.0    13    13.0   967.0    0.00 
  16   17:00   0.02   52.4    69   11.2   358    12.9   967.1    0.00 
  16   17:10   0.01   53.2    62   10.3     2    12.6   967.1    0.00 
  16   17:20   0.00   52.5    66    9.0    13    10.3   967.2    0.00 
  16   17:30   0.00   50.8    73    9.7     9    12.1   967.2    0.00 
  16   17:40   0.00   49.8    76    9.8    18    11.6   967.3    0.00 
  16   17:50   0.00   49.9    75    9.4    10    12.1   967.4    0.00 
  16   18:00   0.00   50.3    73    9.5     9    11.2   967.4    0.00 
  16   18:10   0.00   50.8    70   10.4     6    12.5   967.4    0.00 
  16   18:20   0.00   51.8    65   10.8   356    12.9   967.4    0.00 
  16   18:30   0.00   52.6    61   11.2   348    12.8   967.5    0.00 
  16   18:40   0.00   53.2    57    9.6   356    11.2   967.5    0.00 
  16   18:50   0.00   53.7    54    7.4   357     9.5   967.5    0.00 
  16   19:00   0.00   53.7    53    6.5     4     8.0   967.5    0.00 
  16   19:10   0.00   53.9    52    7.3     9     8.5   967.5    0.00 
  16   19:20   0.00   54.0    52    8.2     7    10.3   967.4    0.00 
  16   19:30   0.00   52.8    58    7.4    10     8.6   967.5    0.00 
  16   19:40   0.00   52.0    60    8.7     1     9.9   967.6    0.00 
  16   19:50   0.00   52.1    61    8.8   360     9.5   967.6    0.00 
  16   20:00   0.00   51.4    65    8.1    10     9.2   967.6    0.00 
  16   20:10   0.00   50.9    67    8.1     5     8.8   967.7    0.00 
  16   20:20   0.00   51.7    63    8.3     3     9.3   967.8    0.00 
  16   20:30   0.00   52.8    57    7.9     3     8.8   967.9    0.00 
  16   20:40   0.00   53.1    55    7.1     6     8.3   967.9    0.00 
  16   20:50   0.00   53.0    57    6.7     5     7.7   968.0    0.00 
  16   21:00   0.00   52.8    58    5.7    11     6.7   968.2    0.00 
  16   21:10   0.00   52.8    58    5.0    19     5.8   968.2    0.00 
  16   21:20   0.00   52.8    58    4.3    40     4.8   968.3    0.00 
  16   21:30   0.00   52.2    59    4.6    51     5.6   968.2    0.00 
  16   21:40   0.00   51.9    60    4.2    45     4.7   968.3    0.00 
  16   21:50   0.00   51.8    60    3.5    34     4.4   968.3    0.00 
  16   22:00   0.00   52.7    55    5.4    44    10.1   968.3    0.00 
  16   22:10   0.00   53.0    51    7.1    49    10.9   968.3    0.00 
  16   22:20   0.00   53.1    53    6.3    29     7.9   968.5    0.00 
  16   22:30   0.00   52.7    57    6.7     7     8.6   968.5    0.00 
  16   22:40   0.00   52.3    60    7.6     2     8.8   968.6    0.00 
  16   22:50   0.00   51.5    65    8.0     9    10.7   968.6    0.00 
  16   23:00   0.00   50.5    70    9.8    14    12.0   968.5    0.00 
  16   23:10   0.00   49.8    72   10.6    15    12.7   968.5    0.00 
  16   23:20   0.00   49.2    74    9.8    13    11.2   968.5    0.00 
  16   23:30   0.00   50.4    69    9.1   351    12.6   968.5    0.00 
  16   23:40   0.00   51.3    65    8.6   346    11.2   968.5    0.00 
  16   23:50   0.00   51.1    66    9.0   342    11.2   968.5    0.00 
  17    0:00   0.00   52.4    59    8.6   340    11.9   968.4    0.00 
  17    0:10   0.00   53.4    53    8.4   350    12.6   968.2    0.00 
  17    0:20   0.00   53.7    50    7.3     3    10.4   968.1    0.00 
  17    0:30   0.00   53.2    52    8.9    26    14.0   967.9    0.00 
  17    0:40   0.00   52.1    54    8.3    28    12.5   967.9    0.00 
  17    0:50   0.00   52.1    55    6.3    34    12.2   967.9    0.00 
  17    1:00   0.00   51.6    58    9.9    27    14.2   967.8    0.00 
  17    1:10   0.00   51.4    58   10.1    32    14.4   967.7    0.00 
  17    1:20   0.00   51.1    58    7.2    31    11.6   967.8    0.00 
  17    1:30   0.00   51.6    56    9.0    21    12.8   967.8    0.00 
  17    1:40   0.00   52.3    54   10.4    26    13.7   967.8    0.00 
  17    1:50   0.00   51.9    55    7.4    29    12.3   967.9    0.00 
  17    2:00   0.00   50.6    58    5.8    28     8.8   968.0    0.00 
  17    2:10   0.00   50.3    60    7.2    26    14.4   968.1    0.00 
  17    2:20   0.00   51.5    57   11.4    29    14.9   968.0    0.00 
  17    2:30   0.00   51.1    59    9.4    23    12.6   968.0    0.00 
  17    2:40   0.00   51.6    58    8.1    23    12.1   968.1    0.00 
  17    2:50   0.00   51.2    60    8.0    15    10.7   968.1    0.00 
  17    3:00   0.00   52.0    56    8.2    12    11.6   968.1    0.00 
  17    3:10   0.00   52.5    55    6.3    17     9.1   968.2    0.00 
  17    3:20   0.00   52.8    53    7.0     7     8.8   968.2    0.00 
  17    3:30   0.00   52.3    52    5.3    29     9.1   968.3    0.00 
  17    3:40   0.00   52.2    50    5.8   359     7.9   968.3    0.00 
  17    3:50   0.00   52.9    48    7.2    14     9.1   968.3    0.00 
  17    4:00   0.00   52.3    49    6.2    25     7.7   968.2    0.00 
  17    4:10   0.00   52.4    50    4.4    10     5.8   968.3    0.00 
  17    4:20   0.00   52.6    49    3.4    21     4.6   968.3    0.00 
  17    4:30   0.00   52.1    50    3.6    49     4.6   968.3    0.00 
  17    4:40   0.00   51.4    46    5.0    80     6.6   968.3    0.00 
  17    4:50   0.00   50.0    43    5.9    86    11.0   968.3    0.00 
  17    5:00   0.00   49.9    38    6.3    68     9.6   968.4    0.00 
  17    5:10   0.00   50.5    37    5.8    56     7.2   968.4    0.00 
  17    5:20   0.00   50.5    39    5.4    45     7.7   968.4    0.00 
  17    5:30   0.00   50.7    41    6.0    30     8.4   968.5    0.00 
  17    5:40   0.00   51.3    45    7.4    30     9.2   968.4    0.00 
  17    5:50   0.00   51.2    48    6.3    29     9.1   968.5    0.00 
  17    6:00   0.00   50.9    46    5.8    42     8.0   968.6    0.00 
  17    6:10   0.00   50.7    48    6.2    45     7.9   968.7    0.00 

Return to Valley Peak, Santa Cruz Island Reserve graphs page.


Western Regional Climate Center,wrcc@dri.edu